sensor_id;sensor_type;location;lat;lon;timestamp;pressure;altitude;pressure_sealevel;temperature;humidity
84022;BME280;74108;48.636;9.492;2024-02-14T00:01:08;98270.13;;;1.51;83.25
84022;BME280;74108;48.636;9.492;2024-02-14T00:03:36;98272.78;;;1.57;82.87
84022;BME280;74108;48.636;9.492;2024-02-14T00:06:04;98273.31;;;1.53;81.88
84022;BME280;74108;48.636;9.492;2024-02-14T00:08:31;98271.22;;;1.56;82.27
84022;BME280;74108;48.636;9.492;2024-02-14T00:10:56;98268.25;;;1.59;82.41
84022;BME280;74108;48.636;9.492;2024-02-14T00:13:21;98262.38;;;1.51;81.64
84022;BME280;74108;48.636;9.492;2024-02-14T00:15:47;98262.38;;;1.36;82.61
84022;BME280;74108;48.636;9.492;2024-02-14T00:18:15;98271.28;;;1.33;83.13
84022;BME280;74108;48.636;9.492;2024-02-14T00:20:41;98274.66;;;1.34;84.14
84022;BME280;74108;48.636;9.492;2024-02-14T00:23:06;98278.22;;;1.48;84.63
84022;BME280;74108;48.636;9.492;2024-02-14T00:25:32;98279.22;;;1.61;83.84
84022;BME280;74108;48.636;9.492;2024-02-14T00:27:57;98279.47;;;1.66;83.40
84022;BME280;74108;48.636;9.492;2024-02-14T00:30:26;98270.66;;;1.75;83.46
84022;BME280;74108;48.636;9.492;2024-02-14T00:32:51;98278.13;;;1.85;82.98
84022;BME280;74108;48.636;9.492;2024-02-14T00:35:17;98273.69;;;1.79;83.78
84022;BME280;74108;48.636;9.492;2024-02-14T00:37:42;98271.94;;;1.79;83.14
84022;BME280;74108;48.636;9.492;2024-02-14T00:40:08;98273.63;;;1.72;82.75
84022;BME280;74108;48.636;9.492;2024-02-14T00:42:34;98279.75;;;1.71;83.46
84022;BME280;74108;48.636;9.492;2024-02-14T00:44:59;98270.50;;;1.77;82.81
84022;BME280;74108;48.636;9.492;2024-02-14T00:47:25;98271.66;;;1.74;83.43
84022;BME280;74108;48.636;9.492;2024-02-14T00:49:50;98271.03;;;1.72;83.60
84022;BME280;74108;48.636;9.492;2024-02-14T00:52:15;98270.50;;;1.77;83.25
84022;BME280;74108;48.636;9.492;2024-02-14T00:54:42;98271.28;;;1.63;82.80
84022;BME280;74108;48.636;9.492;2024-02-14T00:57:07;98271.22;;;1.56;83.74
84022;BME280;74108;48.636;9.492;2024-02-14T00:59:33;98271.50;;;1.61;83.43
84022;BME280;74108;48.636;9.492;2024-02-14T01:01:58;98264.34;;;1.63;83.79
84022;BME280;74108;48.636;9.492;2024-02-14T01:04:27;98279.69;;;1.79;83.82
84022;BME280;74108;48.636;9.492;2024-02-14T01:07:23;98282.31;;;2.00;83.48
84022;BME280;74108;48.636;9.492;2024-02-14T01:09:48;98274.00;;;2.05;82.51
84022;BME280;74108;48.636;9.492;2024-02-14T01:12:15;98282.16;;;2.38;82.17
84022;BME280;74108;48.636;9.492;2024-02-14T01:14:40;98280.13;;;2.33;82.76
84022;BME280;74108;48.636;9.492;2024-02-14T01:17:07;98279.81;;;2.43;82.29
84022;BME280;74108;48.636;9.492;2024-02-14T01:19:37;98270.84;;;2.39;82.30
84022;BME280;74108;48.636;9.492;2024-02-14T01:22:15;98275.00;;;2.19;81.71
84022;BME280;74108;48.636;9.492;2024-02-14T01:24:43;98275.09;;;2.10;82.59
84022;BME280;74108;48.636;9.492;2024-02-14T01:27:29;98281.31;;;2.16;83.09
84022;BME280;74108;48.636;9.492;2024-02-14T01:33:25;98264.13;;;2.23;82.36
84022;BME280;74108;48.636;9.492;2024-02-14T01:36:26;98274.78;;;2.35;82.03
84022;BME280;74108;48.636;9.492;2024-02-14T01:39:33;98274.84;;;2.41;82.42
84022;BME280;74108;48.636;9.492;2024-02-14T01:42:40;98260.66;;;2.37;81.85
84022;BME280;74108;48.636;9.492;2024-02-14T01:45:09;98263.03;;;2.53;82.03
84022;BME280;74108;48.636;9.492;2024-02-14T01:47:34;98283.97;;;2.79;81.67
84022;BME280;74108;48.636;9.492;2024-02-14T01:50:26;98286.00;;;2.84;81.12
84022;BME280;74108;48.636;9.492;2024-02-14T01:53:02;98265.75;;;2.66;82.04
84022;BME280;74108;48.636;9.492;2024-02-14T01:59:16;98263.50;;;2.42;84.33
84022;BME280;74108;48.636;9.492;2024-02-14T02:02:06;98278.53;;;2.32;84.27
84022;BME280;74108;48.636;9.492;2024-02-14T02:04:43;98264.50;;;2.41;84.23
84022;BME280;74108;48.636;9.492;2024-02-14T02:07:21;98258.78;;;2.46;84.21
84022;BME280;74108;48.636;9.492;2024-02-14T02:09:47;98242.97;;;2.34;84.75
84022;BME280;74108;48.636;9.492;2024-02-14T02:12:20;98248.75;;;2.36;85.33
84022;BME280;74108;48.636;9.492;2024-02-14T02:14:54;98265.59;;;2.53;85.26
84022;BME280;74108;48.636;9.492;2024-02-14T02:23:59;98250.19;;;2.60;85.74
84022;BME280;74108;48.636;9.492;2024-02-14T02:26:40;98242.63;;;2.65;85.15
84022;BME280;74108;48.636;9.492;2024-02-14T02:29:17;98244.16;;;2.74;84.99
84022;BME280;74108;48.636;9.492;2024-02-14T02:35:10;98252.56;;;3.04;84.14
84022;BME280;74108;48.636;9.492;2024-02-14T02:37:58;98253.13;;;2.99;84.48
84022;BME280;74108;48.636;9.492;2024-02-14T02:40:58;98251.56;;;3.05;84.46
84022;BME280;74108;48.636;9.492;2024-02-14T02:43:50;98257.47;;;3.20;85.20
84022;BME280;74108;48.636;9.492;2024-02-14T02:47:04;98262.97;;;3.38;85.46
84022;BME280;74108;48.636;9.492;2024-02-14T02:49:38;98233.75;;;3.23;84.69
84022;BME280;74108;48.636;9.492;2024-02-14T02:52:26;98244.06;;;3.16;84.75
84022;BME280;74108;48.636;9.492;2024-02-14T02:55:02;98241.84;;;3.13;86.32
84022;BME280;74108;48.636;9.492;2024-02-14T03:01:51;98236.63;;;3.07;85.91
84022;BME280;74108;48.636;9.492;2024-02-14T03:04:19;98227.97;;;3.21;85.81
84022;BME280;74108;48.636;9.492;2024-02-14T03:06:47;98238.50;;;3.47;85.51
84022;BME280;74108;48.636;9.492;2024-02-14T03:13:18;98222.78;;;3.48;85.23
84022;BME280;74108;48.636;9.492;2024-02-14T03:16:41;98219.44;;;3.54;84.90
84022;BME280;74108;48.636;9.492;2024-02-14T03:19:25;98224.78;;;3.53;85.20
84022;BME280;74108;48.636;9.492;2024-02-14T03:22:46;98206.03;;;3.44;84.94
84022;BME280;74108;48.636;9.492;2024-02-14T03:25:53;98210.25;;;3.52;84.70
84022;BME280;74108;48.636;9.492;2024-02-14T03:29:04;98196.34;;;3.60;84.99
84022;BME280;74108;48.636;9.492;2024-02-14T03:32:26;98184.50;;;3.44;84.22
84022;BME280;74108;48.636;9.492;2024-02-14T03:35:36;98203.69;;;3.56;84.37
84022;BME280;74108;48.636;9.492;2024-02-14T03:38:32;98191.69;;;3.48;84.74
84022;BME280;74108;48.636;9.492;2024-02-14T03:41:12;98192.72;;;3.47;84.47
84022;BME280;74108;48.636;9.492;2024-02-14T03:44:08;98196.72;;;3.57;84.50
84022;BME280;74108;48.636;9.492;2024-02-14T03:47:44;98202.91;;;3.55;84.24
84022;BME280;74108;48.636;9.492;2024-02-14T03:50:20;98203.72;;;3.63;83.71
84022;BME280;74108;48.636;9.492;2024-02-14T03:53:39;98238.72;;;3.86;82.96
84022;BME280;74108;48.636;9.492;2024-02-14T03:56:17;98230.75;;;3.88;83.26
84022;BME280;74108;48.636;9.492;2024-02-14T03:59:39;98239.56;;;3.93;83.00
84022;BME280;74108;48.636;9.492;2024-02-14T04:02:24;98228.59;;;3.91;83.48
84022;BME280;74108;48.636;9.492;2024-02-14T04:05:25;98244.66;;;3.80;84.30
84022;BME280;74108;48.636;9.492;2024-02-14T04:08:16;98253.41;;;3.73;83.69
84022;BME280;74108;48.636;9.492;2024-02-14T04:11:01;98254.34;;;3.65;84.48
84022;BME280;74108;48.636;9.492;2024-02-14T04:14:21;98277.72;;;3.72;83.66
84022;BME280;74108;48.636;9.492;2024-02-14T04:17:02;98257.19;;;3.36;83.97
84022;BME280;74108;48.636;9.492;2024-02-14T04:20:10;98278.91;;;3.41;84.15
84022;BME280;74108;48.636;9.492;2024-02-14T04:23:02;98261.63;;;3.21;83.98
84022;BME280;74108;48.636;9.492;2024-02-14T04:25:51;98268.41;;;3.22;83.78
84022;BME280;74108;48.636;9.492;2024-02-14T04:28:46;98261.06;;;3.25;84.18
84022;BME280;74108;48.636;9.492;2024-02-14T04:34:16;98284.94;;;3.48;84.59
84022;BME280;74108;48.636;9.492;2024-02-14T04:37:48;98277.53;;;3.45;84.32
84022;BME280;74108;48.636;9.492;2024-02-14T04:40:54;98264.00;;;3.50;84.29
84022;BME280;74108;48.636;9.492;2024-02-14T04:43:50;98280.47;;;3.64;84.04
84022;BME280;74108;48.636;9.492;2024-02-14T04:46:16;98269.09;;;3.65;84.41
84022;BME280;74108;48.636;9.492;2024-02-14T04:48:44;98260.09;;;3.61;84.23
84022;BME280;74108;48.636;9.492;2024-02-14T04:54:30;98255.47;;;3.49;84.89
84022;BME280;74108;48.636;9.492;2024-02-14T04:56:55;98258.47;;;3.53;85.13
84022;BME280;74108;48.636;9.492;2024-02-14T04:59:21;98254.06;;;3.47;85.18
84022;BME280;74108;48.636;9.492;2024-02-14T05:01:46;98258.78;;;3.43;84.88
84022;BME280;74108;48.636;9.492;2024-02-14T05:04:12;98264.31;;;3.34;85.25
84022;BME280;74108;48.636;9.492;2024-02-14T05:07:16;98265.56;;;3.38;85.17
84022;BME280;74108;48.636;9.492;2024-02-14T05:09:47;98271.47;;;3.32;85.14
84022;BME280;74108;48.636;9.492;2024-02-14T05:12:47;98261.59;;;3.14;85.66
84022;BME280;74108;48.636;9.492;2024-02-14T05:18:58;98276.78;;;3.24;84.58
84022;BME280;74108;48.636;9.492;2024-02-14T05:25:05;98285.94;;;3.47;84.56
84022;BME280;74108;48.636;9.492;2024-02-14T05:31:16;98281.84;;;3.66;83.73
84022;BME280;74108;48.636;9.492;2024-02-14T05:34:16;98294.97;;;3.58;85.18
84022;BME280;74108;48.636;9.492;2024-02-14T05:36:42;98292.38;;;3.58;84.99
84022;BME280;74108;48.636;9.492;2024-02-14T05:39:11;98297.50;;;3.51;84.66
84022;BME280;74108;48.636;9.492;2024-02-14T05:41:36;98305.00;;;3.40;84.57
84022;BME280;74108;48.636;9.492;2024-02-14T05:44:02;98309.69;;;3.30;85.15
84022;BME280;74108;48.636;9.492;2024-02-14T05:46:28;98305.31;;;3.30;85.94
84022;BME280;74108;48.636;9.492;2024-02-14T05:48:53;98296.59;;;3.31;86.54
84022;BME280;74108;48.636;9.492;2024-02-14T05:51:19;98292.00;;;3.33;86.16
84022;BME280;74108;48.636;9.492;2024-02-14T05:53:45;98286.38;;;3.30;86.37
84022;BME280;74108;48.636;9.492;2024-02-14T05:56:10;98287.13;;;3.45;85.98
84022;BME280;74108;48.636;9.492;2024-02-14T05:58:36;98289.75;;;3.51;85.79
84022;BME280;74108;48.636;9.492;2024-02-14T06:01:01;98268.66;;;3.54;85.95
84022;BME280;74108;48.636;9.492;2024-02-14T06:03:26;98286.81;;;3.61;85.48
84022;BME280;74108;48.636;9.492;2024-02-14T06:05:52;98284.88;;;3.70;85.93
84022;BME280;74108;48.636;9.492;2024-02-14T06:08:18;98273.13;;;3.74;85.54
84022;BME280;74108;48.636;9.492;2024-02-14T06:10:43;98282.34;;;3.83;84.96
84022;BME280;74108;48.636;9.492;2024-02-14T06:13:09;98280.78;;;3.88;85.05
84022;BME280;74108;48.636;9.492;2024-02-14T06:15:34;98277.66;;;3.99;85.83
84022;BME280;74108;48.636;9.492;2024-02-14T06:18:00;98274.44;;;3.97;85.13
84022;BME280;74108;48.636;9.492;2024-02-14T06:20:26;98272.31;;;4.07;84.42
84022;BME280;74108;48.636;9.492;2024-02-14T06:22:51;98269.97;;;4.19;83.97
84022;BME280;74108;48.636;9.492;2024-02-14T06:25:16;98272.75;;;4.24;83.88
84022;BME280;74108;48.636;9.492;2024-02-14T06:27:42;98271.00;;;4.31;83.46
84022;BME280;74108;48.636;9.492;2024-02-14T06:30:08;98275.78;;;4.28;82.87
84022;BME280;74108;48.636;9.492;2024-02-14T06:32:33;98279.94;;;4.28;82.80
84022;BME280;74108;48.636;9.492;2024-02-14T06:34:59;98279.56;;;4.25;82.86
84022;BME280;74108;48.636;9.492;2024-02-14T06:37:24;98281.72;;;4.21;82.82
84022;BME280;74108;48.636;9.492;2024-02-14T06:39:49;98281.19;;;4.33;83.02
84022;BME280;74108;48.636;9.492;2024-02-14T06:42:16;98294.94;;;4.33;83.36
84022;BME280;74108;48.636;9.492;2024-02-14T06:44:41;98289.78;;;4.40;82.67
84022;BME280;74108;48.636;9.492;2024-02-14T06:47:07;98297.16;;;4.43;82.28
84022;BME280;74108;48.636;9.492;2024-02-14T06:49:32;98286.19;;;4.47;81.97
84022;BME280;74108;48.636;9.492;2024-02-14T06:51:57;98291.38;;;4.41;82.11
84022;BME280;74108;48.636;9.492;2024-02-14T06:54:23;98301.16;;;4.45;81.26
84022;BME280;74108;48.636;9.492;2024-02-14T06:56:48;98304.94;;;4.43;81.95
84022;BME280;74108;48.636;9.492;2024-02-14T06:59:13;98304.19;;;4.49;82.51
84022;BME280;74108;48.636;9.492;2024-02-14T07:01:39;98301.78;;;4.54;82.16
84022;BME280;74108;48.636;9.492;2024-02-14T07:04:04;98314.94;;;4.46;82.37
84022;BME280;74108;48.636;9.492;2024-02-14T07:06:30;98309.78;;;4.52;81.92
84022;BME280;74108;48.636;9.492;2024-02-14T07:08:55;98308.38;;;4.56;81.51
84022;BME280;74108;48.636;9.492;2024-02-14T07:11:21;98312.38;;;4.65;81.46
84022;BME280;74108;48.636;9.492;2024-02-14T07:13:46;98306.84;;;4.75;81.14
84022;BME280;74108;48.636;9.492;2024-02-14T07:16:12;98309.25;;;4.83;81.54
84022;BME280;74108;48.636;9.492;2024-02-14T07:18:37;98303.47;;;4.87;81.91
84022;BME280;74108;48.636;9.492;2024-02-14T07:21:03;98296.69;;;4.93;81.55
84022;BME280;74108;48.636;9.492;2024-02-14T07:23:31;98288.50;;;4.96;81.02
84022;BME280;74108;48.636;9.492;2024-02-14T07:25:57;98291.47;;;4.93;81.50
84022;BME280;74108;48.636;9.492;2024-02-14T07:28:22;98294.28;;;4.98;81.73
84022;BME280;74108;48.636;9.492;2024-02-14T07:30:48;98306.28;;;5.06;81.19
84022;BME280;74108;48.636;9.492;2024-02-14T07:33:13;98305.69;;;5.10;81.88
84022;BME280;74108;48.636;9.492;2024-02-14T07:35:39;98301.31;;;5.17;81.88
84022;BME280;74108;48.636;9.492;2024-02-14T07:38:04;98308.72;;;5.20;82.21
84022;BME280;74108;48.636;9.492;2024-02-14T07:40:30;98311.69;;;5.30;81.55
84022;BME280;74108;48.636;9.492;2024-02-14T07:42:59;98306.91;;;5.34;80.37
84022;BME280;74108;48.636;9.492;2024-02-14T07:45:24;98318.50;;;5.38;80.72
84022;BME280;74108;48.636;9.492;2024-02-14T07:47:50;98317.50;;;5.45;80.44
84022;BME280;74108;48.636;9.492;2024-02-14T07:50:15;98320.69;;;5.54;80.61
84022;BME280;74108;48.636;9.492;2024-02-14T07:52:44;98334.47;;;5.54;80.43
84022;BME280;74108;48.636;9.492;2024-02-14T07:55:11;98318.88;;;5.61;80.40
84022;BME280;74108;48.636;9.492;2024-02-14T07:57:40;98324.06;;;5.67;79.87
84022;BME280;74108;48.636;9.492;2024-02-14T08:00:06;98327.22;;;5.83;79.34
84022;BME280;74108;48.636;9.492;2024-02-14T08:02:33;98332.84;;;5.99;78.76
84022;BME280;74108;48.636;9.492;2024-02-14T08:04:59;98332.59;;;6.14;77.67
84022;BME280;74108;48.636;9.492;2024-02-14T08:07:24;98329.56;;;6.30;77.63
84022;BME280;74108;48.636;9.492;2024-02-14T08:09:56;98320.47;;;6.46;76.68
84022;BME280;74108;48.636;9.492;2024-02-14T08:12:21;98317.88;;;6.46;76.39
84022;BME280;74108;48.636;9.492;2024-02-14T08:14:48;98327.03;;;6.55;77.04
84022;BME280;74108;48.636;9.492;2024-02-14T08:17:16;98332.59;;;6.65;76.48
84022;BME280;74108;48.636;9.492;2024-02-14T08:19:42;98325.75;;;6.70;77.75
84022;BME280;74108;48.636;9.492;2024-02-14T08:22:07;98332.13;;;6.81;76.44
84022;BME280;74108;48.636;9.492;2024-02-14T08:24:33;98338.97;;;6.75;76.76
84022;BME280;74108;48.636;9.492;2024-02-14T08:26:58;98338.38;;;6.73;76.88
84022;BME280;74108;48.636;9.492;2024-02-14T08:29:24;98341.16;;;6.78;77.13
84022;BME280;74108;48.636;9.492;2024-02-14T08:31:49;98339.50;;;6.84;77.54
84022;BME280;74108;48.636;9.492;2024-02-14T08:34:15;98341.28;;;6.90;76.65
84022;BME280;74108;48.636;9.492;2024-02-14T08:36:41;98346.88;;;6.93;77.18
84022;BME280;74108;48.636;9.492;2024-02-14T08:39:08;98340.69;;;6.88;76.59
84022;BME280;74108;48.636;9.492;2024-02-14T08:41:38;98356.47;;;6.99;77.21
84022;BME280;74108;48.636;9.492;2024-02-14T08:44:08;98349.81;;;7.03;76.73
84022;BME280;74108;48.636;9.492;2024-02-14T08:46:36;98350.59;;;7.11;77.40
84022;BME280;74108;48.636;9.492;2024-02-14T08:49:01;98357.03;;;7.33;76.83
84022;BME280;74108;48.636;9.492;2024-02-14T08:51:36;98348.91;;;7.47;74.87
84022;BME280;74108;48.636;9.492;2024-02-14T08:54:03;98348.75;;;7.67;73.65
84022;BME280;74108;48.636;9.492;2024-02-14T08:56:31;98339.59;;;7.83;73.25
84022;BME280;74108;48.636;9.492;2024-02-14T08:58:59;98343.88;;;7.95;73.30
84022;BME280;74108;48.636;9.492;2024-02-14T09:01:26;98349.09;;;8.13;73.33
84022;BME280;74108;48.636;9.492;2024-02-14T09:03:51;98343.94;;;8.07;74.52
84022;BME280;74108;48.636;9.492;2024-02-14T09:06:17;98334.75;;;8.22;73.33
84022;BME280;74108;48.636;9.492;2024-02-14T09:08:46;98340.53;;;8.31;72.87
84022;BME280;74108;48.636;9.492;2024-02-14T09:11:11;98340.06;;;8.52;71.31
84022;BME280;74108;48.636;9.492;2024-02-14T09:13:38;98340.69;;;8.66;70.92
84022;BME280;74108;48.636;9.492;2024-02-14T09:16:04;98339.16;;;8.76;70.35
84022;BME280;74108;48.636;9.492;2024-02-14T09:18:31;98341.53;;;9.07;69.95
84022;BME280;74108;48.636;9.492;2024-02-14T09:20:57;98329.53;;;9.30;67.82
84022;BME280;74108;48.636;9.492;2024-02-14T09:23:22;98340.84;;;9.65;67.31
84022;BME280;74108;48.636;9.492;2024-02-14T09:25:48;98332.66;;;9.50;67.12
84022;BME280;74108;48.636;9.492;2024-02-14T09:28:16;98332.88;;;9.60;67.42
84022;BME280;74108;48.636;9.492;2024-02-14T09:30:41;98328.78;;;9.52;68.01
84022;BME280;74108;48.636;9.492;2024-02-14T09:33:09;98338.22;;;9.65;67.60
84022;BME280;74108;48.636;9.492;2024-02-14T09:35:34;98339.13;;;9.70;66.75
84022;BME280;74108;48.636;9.492;2024-02-14T09:38:00;98342.56;;;9.59;67.11
84022;BME280;74108;48.636;9.492;2024-02-14T09:40:26;98346.31;;;9.63;67.63
84022;BME280;74108;48.636;9.492;2024-02-14T09:42:54;98344.13;;;9.72;68.01
84022;BME280;74108;48.636;9.492;2024-02-14T09:45:23;98349.50;;;9.77;67.58
84022;BME280;74108;48.636;9.492;2024-02-14T09:47:50;98348.94;;;9.75;67.20
84022;BME280;74108;48.636;9.492;2024-02-14T09:50:17;98344.81;;;9.79;67.06
84022;BME280;74108;48.636;9.492;2024-02-14T09:52:43;98348.25;;;9.79;67.21
84022;BME280;74108;48.636;9.492;2024-02-14T09:55:09;98354.41;;;9.85;66.97
84022;BME280;74108;48.636;9.492;2024-02-14T09:57:38;98348.94;;;9.86;68.06
84022;BME280;74108;48.636;9.492;2024-02-14T10:00:06;98354.03;;;10.05;67.07
84022;BME280;74108;48.636;9.492;2024-02-14T10:02:35;98345.38;;;10.27;65.71
84022;BME280;74108;48.636;9.492;2024-02-14T10:05:00;98340.59;;;10.47;64.62
84022;BME280;74108;48.636;9.492;2024-02-14T10:07:26;98339.97;;;10.57;64.75
84022;BME280;74108;48.636;9.492;2024-02-14T10:09:52;98337.81;;;10.82;65.01
84022;BME280;74108;48.636;9.492;2024-02-14T10:12:19;98331.16;;;10.91;64.00
84022;BME280;74108;48.636;9.492;2024-02-14T10:14:44;98328.47;;;10.86;64.17
84022;BME280;74108;48.636;9.492;2024-02-14T10:17:18;98332.84;;;11.25;62.65
84022;BME280;74108;48.636;9.492;2024-02-14T10:19:54;98327.50;;;11.54;62.28
84022;BME280;74108;48.636;9.492;2024-02-14T10:22:19;98325.63;;;12.04;61.26
84022;BME280;74108;48.636;9.492;2024-02-14T10:24:46;98326.50;;;12.10;61.45
84022;BME280;74108;48.636;9.492;2024-02-14T10:27:11;98327.03;;;12.28;59.74
84022;BME280;74108;48.636;9.492;2024-02-14T10:29:36;98323.25;;;12.89;59.28
84022;BME280;74108;48.636;9.492;2024-02-14T10:32:02;98313.81;;;13.47;56.91
84022;BME280;74108;48.636;9.492;2024-02-14T10:34:27;98317.13;;;13.69;55.91
84022;BME280;74108;48.636;9.492;2024-02-14T10:36:56;98307.88;;;14.08;55.35
84022;BME280;74108;48.636;9.492;2024-02-14T10:39:25;98307.91;;;14.13;54.46
84022;BME280;74108;48.636;9.492;2024-02-14T10:41:50;98299.47;;;14.16;54.96
84022;BME280;74108;48.636;9.492;2024-02-14T10:44:16;98301.91;;;14.23;54.68
84022;BME280;74108;48.636;9.492;2024-02-14T10:46:48;98301.13;;;14.27;55.14
84022;BME280;74108;48.636;9.492;2024-02-14T10:49:20;98291.16;;;14.34;55.96
84022;BME280;74108;48.636;9.492;2024-02-14T10:51:48;98300.47;;;14.62;55.07
84022;BME280;74108;48.636;9.492;2024-02-14T10:54:14;98304.28;;;15.16;56.04
84022;BME280;74108;48.636;9.492;2024-02-14T10:56:49;98296.38;;;15.62;52.78
84022;BME280;74108;48.636;9.492;2024-02-14T10:59:20;98292.91;;;15.81;53.34
84022;BME280;74108;48.636;9.492;2024-02-14T11:01:46;98295.50;;;15.91;52.75
84022;BME280;74108;48.636;9.492;2024-02-14T11:04:13;98286.53;;;15.87;53.12
84022;BME280;74108;48.636;9.492;2024-02-14T11:06:54;98292.59;;;15.98;53.19
84022;BME280;74108;48.636;9.492;2024-02-14T11:09:37;98294.75;;;15.81;53.33
84022;BME280;74108;48.636;9.492;2024-02-14T11:12:06;98291.59;;;15.74;54.74
84022;BME280;74108;48.636;9.492;2024-02-14T11:14:34;98295.28;;;15.83;54.77
84022;BME280;74108;48.636;9.492;2024-02-14T11:17:04;98284.75;;;15.53;54.19
84022;BME280;74108;48.636;9.492;2024-02-14T11:19:34;98304.28;;;15.41;55.14
84022;BME280;74108;48.636;9.492;2024-02-14T11:22:18;98301.09;;;15.29;55.32
84022;BME280;74108;48.636;9.492;2024-02-14T11:24:47;98310.84;;;15.09;56.49
84022;BME280;74108;48.636;9.492;2024-02-14T11:27:22;98309.53;;;14.91;57.59
84022;BME280;74108;48.636;9.492;2024-02-14T11:29:52;98300.00;;;14.75;57.61
84022;BME280;74108;48.636;9.492;2024-02-14T11:32:27;98294.66;;;14.65;57.75
84022;BME280;74108;48.636;9.492;2024-02-14T11:34:53;98293.88;;;14.64;56.86
84022;BME280;74108;48.636;9.492;2024-02-14T11:37:30;98295.34;;;14.30;58.07
84022;BME280;74108;48.636;9.492;2024-02-14T11:39:57;98301.31;;;14.11;58.64
84022;BME280;74108;48.636;9.492;2024-02-14T11:42:43;98315.25;;;14.06;59.80
84022;BME280;74108;48.636;9.492;2024-02-14T11:45:09;98316.00;;;13.60;60.39
84022;BME280;74108;48.636;9.492;2024-02-14T11:47:43;98302.84;;;13.60;61.15
84022;BME280;74108;48.636;9.492;2024-02-14T11:50:08;98301.72;;;13.51;61.97
84022;BME280;74108;48.636;9.492;2024-02-14T11:52:36;98309.22;;;13.69;61.57
84022;BME280;74108;48.636;9.492;2024-02-14T11:55:01;98297.59;;;13.65;62.44
84022;BME280;74108;48.636;9.492;2024-02-14T11:57:27;98305.16;;;13.51;62.24
84022;BME280;74108;48.636;9.492;2024-02-14T11:59:52;98288.91;;;13.27;63.08
84022;BME280;74108;48.636;9.492;2024-02-14T12:02:22;98302.38;;;13.36;63.27
84022;BME280;74108;48.636;9.492;2024-02-14T12:04:51;98309.00;;;13.38;63.82
84022;BME280;74108;48.636;9.492;2024-02-14T12:07:19;98303.88;;;13.59;63.87
84022;BME280;74108;48.636;9.492;2024-02-14T12:09:47;98308.63;;;13.62;62.87
84022;BME280;74108;48.636;9.492;2024-02-14T12:12:15;98301.06;;;13.70;63.07
84022;BME280;74108;48.636;9.492;2024-02-14T12:14:45;98306.03;;;13.67;63.52
84022;BME280;74108;48.636;9.492;2024-02-14T12:17:16;98310.78;;;13.65;63.78
84022;BME280;74108;48.636;9.492;2024-02-14T12:19:44;98313.19;;;13.71;63.46
84022;BME280;74108;48.636;9.492;2024-02-14T12:22:10;98309.44;;;13.62;63.89
84022;BME280;74108;48.636;9.492;2024-02-14T12:24:44;98314.22;;;13.70;63.40
84022;BME280;74108;48.636;9.492;2024-02-14T12:27:09;98320.50;;;13.64;64.15
84022;BME280;74108;48.636;9.492;2024-02-14T12:29:35;98316.53;;;13.62;63.78
84022;BME280;74108;48.636;9.492;2024-02-14T12:32:05;98318.59;;;13.55;64.31
84022;BME280;74108;48.636;9.492;2024-02-14T12:34:31;98322.09;;;13.65;64.36
84022;BME280;74108;48.636;9.492;2024-02-14T12:36:57;98316.91;;;13.75;63.38
84022;BME280;74108;48.636;9.492;2024-02-14T12:39:23;98306.94;;;13.82;63.56
84022;BME280;74108;48.636;9.492;2024-02-14T12:41:49;98309.03;;;13.80;63.18
84022;BME280;74108;48.636;9.492;2024-02-14T12:44:15;98307.66;;;13.73;62.84
84022;BME280;74108;48.636;9.492;2024-02-14T12:46:40;98300.66;;;13.52;63.84
84022;BME280;74108;48.636;9.492;2024-02-14T12:49:06;98308.09;;;13.60;63.82
84022;BME280;74108;48.636;9.492;2024-02-14T12:51:31;98308.69;;;13.67;64.16
84022;BME280;74108;48.636;9.492;2024-02-14T12:53:56;98307.78;;;13.56;63.68
84022;BME280;74108;48.636;9.492;2024-02-14T12:56:22;98307.22;;;13.49;64.65
84022;BME280;74108;48.636;9.492;2024-02-14T12:58:48;98305.09;;;13.46;64.09
84022;BME280;74108;48.636;9.492;2024-02-14T13:01:13;98298.03;;;13.52;65.22
84022;BME280;74108;48.636;9.492;2024-02-14T13:03:40;98305.50;;;13.65;63.91
84022;BME280;74108;48.636;9.492;2024-02-14T13:06:05;98300.50;;;13.68;64.45
84022;BME280;74108;48.636;9.492;2024-02-14T13:08:30;98295.81;;;13.75;63.85
84022;BME280;74108;48.636;9.492;2024-02-14T13:10:57;98288.75;;;13.81;63.57
84022;BME280;74108;48.636;9.492;2024-02-14T13:13:22;98286.69;;;13.93;63.79
84022;BME280;74108;48.636;9.492;2024-02-14T13:15:47;98291.69;;;13.89;63.76
84022;BME280;74108;48.636;9.492;2024-02-14T13:18:13;98290.41;;;13.92;64.04
84022;BME280;74108;48.636;9.492;2024-02-14T13:20:38;98275.69;;;14.01;62.61
84022;BME280;74108;48.636;9.492;2024-02-14T13:23:04;98282.97;;;13.84;63.60
84022;BME280;74108;48.636;9.492;2024-02-14T13:25:33;98295.91;;;13.85;63.61
84022;BME280;74108;48.636;9.492;2024-02-14T13:27:58;98285.94;;;13.92;64.38
84022;BME280;74108;48.636;9.492;2024-02-14T13:30:24;98278.81;;;13.98;64.30
84022;BME280;74108;48.636;9.492;2024-02-14T13:32:52;98282.31;;;14.08;63.68
84022;BME280;74108;48.636;9.492;2024-02-14T13:35:18;98274.00;;;14.32;62.24
84022;BME280;74108;48.636;9.492;2024-02-14T13:37:43;98267.72;;;14.43;61.91
84022;BME280;74108;48.636;9.492;2024-02-14T13:40:10;98264.81;;;14.44;62.21
84022;BME280;74108;48.636;9.492;2024-02-14T13:42:38;98267.44;;;14.44;63.12
84022;BME280;74108;48.636;9.492;2024-02-14T13:45:05;98259.31;;;14.61;62.74
84022;BME280;74108;48.636;9.492;2024-02-14T13:47:35;98259.81;;;14.53;62.30
84022;BME280;74108;48.636;9.492;2024-02-14T13:50:01;98257.75;;;14.65;61.64
84022;BME280;74108;48.636;9.492;2024-02-14T13:52:27;98257.47;;;14.61;62.89
84022;BME280;74108;48.636;9.492;2024-02-14T13:54:52;98254.59;;;14.68;61.91
84022;BME280;74108;48.636;9.492;2024-02-14T13:57:18;98251.72;;;14.80;60.40
84022;BME280;74108;48.636;9.492;2024-02-14T13:59:43;98250.13;;;14.84;60.34
84022;BME280;74108;48.636;9.492;2024-02-14T14:02:09;98253.84;;;14.83;61.50
84022;BME280;74108;48.636;9.492;2024-02-14T14:04:35;98256.47;;;14.83;61.53
84022;BME280;74108;48.636;9.492;2024-02-14T14:07:00;98266.00;;;14.99;60.96
84022;BME280;74108;48.636;9.492;2024-02-14T14:09:29;98255.41;;;15.09;60.54
84022;BME280;74108;48.636;9.492;2024-02-14T14:11:58;98263.59;;;14.97;60.88
84022;BME280;74108;48.636;9.492;2024-02-14T14:14:23;98258.31;;;14.87;61.02